Aviation Digital Data Service (ADDS)

Output produced by TAFs form (0530 UTC 11 December 2017)
found at http://www.aviationweather.gov/adds/tafs/
 
METAR text: KDFW 110453Z 22006KT 10SM CLR 07/M04 A3026 RMK AO2 SLP245 T00721044
Conditions at: KDFW (DALLAS/FT WORTH , TX, US) observed 0453 UTC 11 December 2017
Temperature: 7.2°C (45°F)
Dewpoint: -4.4°C (24°F) [RH = 43%]
Pressure (altimeter): 30.26 inches Hg (1024.8 mb)
[Sea-level pressure: 1024.5 mb]
Winds: from the SW (220 degrees) at 7 MPH (6 knots; 3.1 m/s)
Visibility: 10 or more miles (16+ km)
Ceiling: at least 12,000 feet AGL
Clouds: sky clear below 12,000 feet AGL
Weather: no significant weather observed at this time

Forecast for: KDFW (DALLAS/FT WORTH , TX, US)
Text: KDFW 110528Z 1106/1212 25008KT P6SM FEW300
Forecast period: 0600 UTC 11 December 2017 to 0400 UTC 12 December 2017
Forecast type: FROM: standard forecast or significant change
Winds: from the WSW (250 degrees) at 9 MPH (8 knots; 4.2 m/s)
Visibility: 6 or more miles (10+ km)
Clouds: few clouds at 30000 feet AGL
Weather: no significant weather forecast for this period
Text: FM120400 33010KT P6SM SCT300
Forecast period: 0400 to 1200 UTC 12 December 2017
Forecast type: FROM: standard forecast or significant change
Winds: from the NNW (330 degrees) at 12 MPH (10 knots; 5.2 m/s)
Visibility: 6 or more miles (10+ km)
Clouds: scattered clouds at 30000 feet AGL
Weather: no significant weather forecast for this period